createdAt,value
2017-07-05T00:00:01.128Z,13.60
2017-07-05T00:02:30.040Z,13.70
2017-07-05T00:04:58.389Z,13.80
2017-07-05T00:07:26.693Z,13.80
2017-07-05T00:09:55.047Z,13.80
2017-07-05T00:12:23.370Z,13.80
2017-07-05T00:14:51.669Z,13.80
2017-07-05T00:17:20.048Z,13.80
2017-07-05T00:19:49.105Z,13.70
2017-07-05T00:22:18.226Z,13.70
2017-07-05T00:24:46.520Z,13.70
2017-07-05T00:27:14.888Z,13.80
2017-07-05T00:29:43.192Z,13.70
2017-07-05T00:32:11.552Z,13.70
2017-07-05T00:34:39.898Z,13.60
2017-07-05T00:37:08.250Z,13.60
2017-07-05T00:39:36.693Z,13.60
2017-07-05T00:42:04.992Z,13.60
2017-07-05T00:44:33.300Z,13.50
2017-07-05T00:47:01.653Z,13.50
2017-07-05T00:49:30.083Z,13.50
2017-07-05T00:51:58.434Z,13.40
2017-07-05T00:54:26.737Z,13.40
2017-07-05T00:56:55.620Z,13.40
2017-07-05T00:59:23.948Z,13.40
2017-07-05T01:01:52.263Z,13.40
2017-07-05T01:04:20.568Z,13.50
2017-07-05T01:06:48.918Z,13.50
2017-07-05T01:09:17.224Z,13.40
2017-07-05T01:11:45.592Z,13.30
2017-07-05T01:14:13.903Z,13.30
2017-07-05T01:16:42.977Z,13.20
2017-07-05T01:19:11.328Z,13.20
2017-07-05T01:21:39.634Z,13.20
2017-07-05T01:24:08.001Z,13.10
2017-07-05T01:26:36.349Z,13.20
2017-07-05T01:29:08.250Z,13.20
2017-07-05T01:31:43.580Z,13.00
2017-07-05T01:34:11.925Z,13.00
2017-07-05T01:36:40.232Z,13.00
2017-07-05T01:39:08.581Z,13.00
2017-07-05T01:41:37.692Z,12.90
2017-07-05T01:44:06.817Z,12.90
2017-07-05T01:46:35.168Z,12.90
2017-07-05T01:49:03.475Z,12.90
2017-07-05T01:51:32.589Z,12.90
2017-07-05T01:54:01.658Z,12.90
2017-07-05T01:56:30.025Z,12.90
2017-07-05T01:58:58.338Z,12.90
2017-07-05T02:01:26.834Z,12.90
2017-07-05T02:03:55.135Z,12.90
2017-07-05T02:06:23.460Z,12.80
2017-07-05T02:08:51.813Z,12.80
2017-07-05T02:11:20.116Z,12.70
2017-07-05T02:13:48.465Z,12.70
2017-07-05T02:16:16.825Z,12.80
2017-07-05T02:18:45.124Z,12.90
2017-07-05T02:21:13.429Z,12.90
2017-07-05T02:23:41.803Z,12.90
2017-07-05T02:26:10.147Z,12.90
2017-07-05T02:28:38.475Z,12.80
2017-07-05T02:31:06.824Z,12.80
2017-07-05T02:33:35.120Z,12.70
2017-07-05T02:36:03.493Z,12.80
2017-07-05T02:38:31.800Z,12.80
2017-07-05T02:41:00.115Z,12.80
2017-07-05T02:43:28.460Z,12.80
2017-07-05T02:45:56.809Z,12.80
2017-07-05T02:48:25.160Z,12.70
2017-07-05T02:50:53.507Z,12.70
2017-07-05T02:53:21.809Z,12.70
2017-07-05T02:55:50.155Z,12.70
2017-07-05T02:58:18.517Z,12.60
2017-07-05T03:00:46.820Z,12.60
2017-07-05T03:03:15.896Z,12.60
2017-07-05T03:05:44.254Z,12.50
2017-07-05T03:08:12.555Z,12.50
2017-07-05T03:10:40.864Z,12.50
2017-07-05T03:13:09.209Z,12.40
2017-07-05T03:15:37.557Z,12.40
2017-07-05T03:18:05.909Z,12.30
2017-07-05T03:20:34.219Z,12.30
2017-07-05T03:23:02.580Z,12.30
2017-07-05T03:25:30.892Z,12.30
2017-07-05T03:27:59.199Z,12.30
2017-07-05T03:30:27.569Z,12.30
2017-07-05T03:32:55.874Z,12.20
2017-07-05T03:35:24.185Z,12.30
2017-07-05T03:37:53.308Z,12.30
2017-07-05T03:40:21.618Z,12.30
2017-07-05T03:42:49.988Z,12.40
2017-07-05T03:45:19.076Z,12.40
2017-07-05T03:47:47.377Z,12.40
2017-07-05T03:50:15.721Z,12.40
2017-07-05T03:52:44.025Z,12.50
2017-07-05T03:55:12.377Z,12.60
2017-07-05T03:57:40.737Z,12.60
2017-07-05T04:00:09.061Z,12.80
2017-07-05T04:02:37.379Z,12.90
2017-07-05T04:05:05.736Z,12.90
2017-07-05T04:07:34.089Z,12.90
2017-07-05T04:10:02.435Z,12.80
2017-07-05T04:12:30.720Z,12.80
2017-07-05T04:14:59.070Z,12.80
2017-07-05T04:17:27.395Z,12.90
2017-07-05T04:19:55.740Z,12.90
2017-07-05T04:22:24.039Z,12.80
2017-07-05T04:24:52.830Z,12.70
2017-07-05T04:27:21.135Z,12.70
2017-07-05T04:29:50.201Z,12.70
2017-07-05T04:32:18.560Z,12.70
2017-07-05T04:34:46.864Z,12.80
2017-07-05T04:37:15.173Z,12.80
2017-07-05T04:39:43.525Z,12.90
2017-07-05T04:42:11.824Z,13.10
2017-07-05T04:44:40.205Z,13.20
2017-07-05T04:47:08.526Z,13.50
2017-07-05T04:49:36.878Z,13.70
2017-07-05T04:52:05.187Z,13.80
2017-07-05T04:54:33.554Z,14.00
2017-07-05T04:57:02.892Z,14.20
2017-07-05T04:59:31.195Z,14.20
2017-07-05T05:01:59.552Z,14.10
2017-07-05T05:04:27.860Z,14.30
2017-07-05T05:06:56.209Z,14.30
2017-07-05T05:09:24.517Z,14.40
2017-07-05T05:11:52.885Z,14.70
2017-07-05T05:14:21.949Z,15.00
2017-07-05T05:16:50.423Z,15.00
2017-07-05T05:19:18.735Z,14.90
2017-07-05T05:21:47.064Z,14.90
2017-07-05T05:24:15.418Z,15.10
2017-07-05T05:26:43.782Z,15.10
2017-07-05T05:29:12.100Z,15.30
2017-07-05T05:31:40.438Z,15.40
2017-07-05T05:34:09.563Z,15.30
2017-07-05T05:36:37.917Z,15.30
2017-07-05T05:39:06.984Z,15.60
2017-07-05T05:41:35.332Z,15.60
2017-07-05T05:44:04.397Z,15.90
2017-07-05T05:46:32.748Z,15.90
2017-07-05T05:49:01.061Z,16.00
2017-07-05T05:51:29.429Z,15.90
2017-07-05T05:53:57.779Z,15.90
2017-07-05T05:56:26.076Z,15.80
2017-07-05T05:58:54.498Z,15.70
2017-07-05T06:01:22.866Z,15.70
2017-07-05T06:03:51.937Z,15.90
2017-07-05T06:06:20.292Z,15.90
2017-07-05T06:08:48.631Z,16.10
2017-07-05T06:11:16.933Z,16.30
2017-07-05T06:13:45.294Z,16.50
2017-07-05T06:16:13.801Z,16.70
2017-07-05T06:18:43.335Z,17.00
2017-07-05T06:21:11.629Z,17.20
2017-07-05T06:23:39.998Z,17.40
2017-07-05T06:26:08.777Z,17.40
2017-07-05T06:28:37.387Z,17.60
2017-07-05T06:31:05.790Z,17.60
2017-07-05T06:33:34.096Z,17.70
2017-07-05T06:36:02.450Z,17.70
2017-07-05T06:38:30.798Z,17.80
2017-07-05T06:40:59.141Z,17.80
2017-07-05T06:43:27.453Z,17.80
2017-07-05T06:45:55.924Z,17.90
2017-07-05T06:48:24.240Z,17.90
2017-07-05T06:50:52.544Z,17.90
2017-07-05T06:53:21.659Z,18.00
2017-07-05T06:55:50.777Z,18.00
2017-07-05T06:58:19.085Z,18.00
2017-07-05T07:00:47.524Z,18.10
2017-07-05T07:03:15.828Z,18.10
2017-07-05T07:05:44.888Z,18.20
2017-07-05T07:08:13.256Z,18.20
2017-07-05T07:10:41.557Z,18.30
2017-07-05T07:13:09.856Z,18.40
2017-07-05T07:15:38.263Z,18.40
2017-07-05T07:18:06.561Z,18.50
2017-07-05T07:20:34.864Z,18.50
2017-07-05T07:23:03.208Z,18.60
2017-07-05T07:25:31.683Z,18.60
2017-07-05T07:27:59.991Z,18.60
2017-07-05T07:30:28.306Z,18.70
2017-07-05T07:32:56.664Z,18.70
2017-07-05T07:35:24.981Z,18.90
2017-07-05T07:37:53.355Z,19.00
2017-07-05T07:40:21.668Z,18.90
2017-07-05T07:42:49.992Z,18.70
2017-07-05T07:45:19.110Z,18.90
2017-07-05T07:47:47.705Z,18.90
2017-07-05T07:50:16.032Z,18.80
2017-07-05T07:52:44.338Z,18.70
2017-07-05T07:55:12.689Z,18.50
2017-07-05T07:57:41.249Z,18.80
2017-07-05T08:00:10.316Z,19.20
2017-07-05T08:02:38.621Z,19.20
2017-07-05T08:05:06.981Z,19.30
2017-07-05T08:07:35.293Z,19.40
2017-07-05T08:10:03.596Z,19.20
2017-07-05T08:12:31.964Z,19.30
2017-07-05T08:15:00.269Z,19.70
2017-07-05T08:17:28.620Z,20.00
2017-07-05T08:19:57.138Z,20.10
2017-07-05T08:22:25.443Z,20.00
2017-07-05T08:24:53.826Z,19.70
2017-07-05T08:27:22.175Z,19.50
2017-07-05T08:29:50.484Z,19.50
2017-07-05T08:32:18.852Z,19.70
2017-07-05T08:34:47.162Z,20.30
2017-07-05T08:37:15.500Z,20.10
2017-07-05T08:39:44.792Z,19.80
2017-07-05T08:42:13.100Z,19.50
2017-07-05T08:44:41.405Z,19.30
2017-07-05T08:47:09.767Z,19.00
2017-07-05T08:49:39.874Z,19.10
2017-07-05T08:52:08.193Z,19.30
2017-07-05T08:54:36.538Z,19.70
2017-07-05T08:57:04.894Z,20.50
2017-07-05T08:59:33.257Z,20.80
2017-07-05T09:02:01.573Z,21.00
2017-07-05T09:04:29.884Z,20.50
2017-07-05T09:06:58.273Z,20.10
2017-07-05T09:09:26.652Z,19.70
2017-07-05T09:11:54.972Z,19.40
2017-07-05T09:14:23.281Z,19.60
2017-07-05T09:16:51.627Z,20.40
2017-07-05T09:19:21.281Z,20.80
2017-07-05T09:21:49.602Z,21.00
2017-07-05T09:24:17.951Z,21.30
2017-07-05T09:26:46.262Z,21.50
2017-07-05T09:29:14.641Z,21.40
2017-07-05T09:31:42.953Z,21.20
2017-07-05T09:34:11.340Z,21.40
2017-07-05T09:36:39.742Z,21.90
2017-07-05T09:39:08.054Z,21.80
2017-07-05T09:41:37.125Z,21.50
2017-07-05T09:44:06.562Z,21.50
2017-07-05T09:46:34.932Z,20.80
2017-07-05T09:49:03.228Z,21.00
2017-07-05T09:51:31.544Z,21.50
2017-07-05T09:53:59.933Z,22.00
2017-07-05T09:56:28.293Z,22.30
2017-07-05T09:58:56.600Z,22.80
2017-07-05T10:01:24.900Z,23.40
2017-07-05T10:03:53.283Z,23.60
2017-07-05T10:06:21.644Z,23.80
2017-07-05T10:08:49.941Z,24.20
2017-07-05T10:11:18.346Z,23.90
2017-07-05T10:13:46.657Z,23.30
2017-07-05T10:16:15.021Z,22.30
2017-07-05T10:18:43.377Z,21.50
2017-07-05T10:21:11.782Z,20.90
2017-07-05T10:23:40.822Z,22.20
2017-07-05T10:26:09.181Z,22.20
2017-07-05T10:28:37.546Z,22.80
2017-07-05T10:31:05.855Z,22.60
2017-07-05T10:33:34.175Z,22.40
2017-07-05T10:36:03.929Z,22.70
2017-07-05T10:38:32.996Z,22.30
2017-07-05T10:41:01.368Z,22.30
2017-07-05T10:43:29.670Z,22.00
2017-07-05T10:45:57.976Z,22.80
2017-07-05T10:48:26.927Z,23.30
2017-07-05T10:50:55.260Z,22.80
2017-07-05T10:53:23.570Z,23.20
2017-07-05T10:55:51.953Z,22.60
2017-07-05T10:58:21.206Z,22.60
2017-07-05T11:00:49.515Z,22.40
2017-07-05T11:03:19.189Z,22.10
2017-07-05T11:05:47.525Z,22.20
2017-07-05T11:08:15.940Z,22.00
2017-07-05T11:10:44.281Z,22.10
2017-07-05T11:13:13.394Z,21.70
2017-07-05T11:15:41.776Z,21.70
2017-07-05T11:18:10.176Z,21.70
2017-07-05T11:20:39.246Z,22.40
2017-07-05T11:23:07.592Z,22.40
2017-07-05T11:25:41.108Z,23.20
2017-07-05T11:28:09.456Z,23.40
2017-07-05T11:30:38.005Z,23.60
2017-07-05T11:33:06.449Z,23.30
2017-07-05T11:35:34.784Z,24.00
2017-07-05T11:38:03.132Z,24.30
2017-07-05T11:40:31.459Z,23.90
2017-07-05T11:42:59.816Z,23.30
2017-07-05T11:45:28.933Z,22.50
2017-07-05T11:47:58.466Z,22.20
2017-07-05T11:50:26.800Z,22.20
2017-07-05T11:52:55.128Z,22.60
2017-07-05T11:55:23.498Z,23.40
2017-07-05T11:57:51.805Z,23.90
2017-07-05T12:00:20.925Z,24.60
2017-07-05T12:02:49.281Z,24.50
2017-07-05T12:05:18.377Z,25.30
2017-07-05T12:07:46.735Z,25.30
2017-07-05T12:10:15.049Z,25.10
2017-07-05T12:12:43.348Z,24.60
2017-07-05T12:15:11.743Z,24.40
2017-07-05T12:17:40.050Z,24.30
2017-07-05T12:20:08.451Z,25.00
2017-07-05T12:22:36.798Z,25.60
2017-07-05T12:25:05.076Z,25.50
2017-07-05T12:27:33.437Z,24.80
2017-07-05T12:30:01.930Z,24.20
2017-07-05T12:32:31.835Z,24.80
2017-07-05T12:35:00.223Z,25.40
2017-07-05T12:37:28.516Z,26.20
2017-07-05T12:39:56.894Z,26.70
2017-07-05T12:42:25.181Z,27.00
2017-07-05T12:44:53.728Z,26.60
2017-07-05T12:47:22.072Z,26.10
2017-07-05T12:49:50.388Z,25.90
2017-07-05T12:52:18.733Z,25.60
2017-07-05T12:54:47.028Z,25.70
2017-07-05T12:57:15.365Z,25.70
2017-07-05T12:59:43.710Z,24.80
2017-07-05T13:02:12.052Z,24.90
2017-07-05T13:04:40.421Z,25.40
2017-07-05T13:07:08.722Z,25.80
2017-07-05T13:09:37.012Z,25.90
2017-07-05T13:12:05.360Z,25.40
2017-07-05T13:14:33.708Z,25.30
2017-07-05T13:17:02.052Z,25.10
2017-07-05T13:19:30.506Z,25.00
2017-07-05T13:21:58.803Z,24.50
2017-07-05T13:24:27.105Z,24.20
2017-07-05T13:26:55.592Z,23.80
2017-07-05T13:29:23.908Z,23.90
2017-07-05T13:31:52.259Z,24.00
2017-07-05T13:34:20.575Z,24.10
2017-07-05T13:36:48.868Z,24.10
2017-07-05T13:39:17.298Z,24.50
2017-07-05T13:41:45.597Z,25.00
2017-07-05T13:44:13.948Z,25.20
2017-07-05T13:46:42.254Z,25.20
2017-07-05T13:49:10.610Z,25.00
2017-07-05T13:51:38.908Z,25.20
2017-07-05T13:54:07.289Z,25.50
2017-07-05T13:56:35.610Z,25.60
2017-07-05T13:59:03.936Z,25.50
2017-07-05T14:01:32.285Z,25.90
2017-07-05T14:04:00.637Z,26.10
2017-07-05T14:06:29.269Z,26.60
2017-07-05T14:08:57.633Z,26.30
2017-07-05T14:11:25.947Z,26.10
2017-07-05T14:13:54.249Z,26.30
2017-07-05T14:16:22.608Z,25.40
2017-07-05T14:18:50.917Z,24.90
2017-07-05T14:21:19.292Z,24.80
2017-07-05T14:23:47.637Z,24.80
2017-07-05T14:26:15.941Z,25.20
2017-07-05T14:28:44.265Z,25.70
2017-07-05T14:31:12.635Z,25.50
2017-07-05T14:33:40.937Z,25.40
2017-07-05T14:36:09.317Z,25.30
2017-07-05T14:38:37.797Z,25.40
2017-07-05T14:41:06.149Z,25.10
2017-07-05T14:43:34.449Z,24.80
2017-07-05T14:46:02.817Z,24.60
2017-07-05T14:48:31.124Z,24.30
2017-07-05T14:50:59.493Z,23.90
2017-07-05T14:53:27.852Z,24.10
2017-07-05T14:55:58.669Z,24.50
2017-07-05T14:58:27.012Z,24.70
2017-07-05T15:00:55.318Z,24.80
2017-07-05T15:03:23.672Z,25.00
2017-07-05T15:05:52.025Z,24.80
2017-07-05T15:08:20.392Z,24.00
2017-07-05T15:10:49.199Z,23.90
2017-07-05T15:13:17.709Z,24.20
2017-07-05T15:15:46.021Z,24.40
2017-07-05T15:18:14.321Z,24.40
2017-07-05T15:20:42.964Z,24.60
2017-07-05T15:23:11.259Z,24.50
2017-07-05T15:25:39.809Z,24.40
2017-07-05T15:28:08.161Z,24.30
2017-07-05T15:30:36.460Z,24.60
2017-07-05T15:33:04.760Z,25.20
2017-07-05T15:35:33.104Z,25.70
2017-07-05T15:38:01.482Z,25.80
2017-07-05T15:40:29.834Z,25.60
2017-07-05T15:42:58.136Z,24.90
2017-07-05T15:45:26.485Z,24.60
2017-07-05T15:47:54.830Z,24.80
2017-07-05T15:50:23.192Z,24.70
2017-07-05T15:52:51.500Z,24.90
2017-07-05T15:55:19.964Z,24.60
2017-07-05T15:57:49.290Z,24.60
2017-07-05T16:00:17.597Z,24.40
2017-07-05T16:02:45.956Z,24.60
2017-07-05T16:05:14.268Z,24.40
2017-07-05T16:07:42.558Z,23.90
2017-07-05T16:10:10.992Z,24.10
2017-07-05T16:12:39.335Z,23.90
2017-07-05T16:15:07.704Z,23.70
2017-07-05T16:17:36.065Z,23.50
2017-07-05T16:20:04.365Z,23.40
2017-07-05T16:22:32.710Z,23.50
2017-07-05T16:25:01.029Z,23.70
2017-07-05T16:27:29.382Z,23.70
2017-07-05T16:29:57.780Z,23.50
2017-07-05T16:32:26.081Z,23.20
2017-07-05T16:34:54.381Z,23.50
2017-07-05T16:37:22.731Z,23.60
2017-07-05T16:39:51.061Z,23.50
2017-07-05T16:42:19.415Z,23.20
2017-07-05T16:44:47.725Z,23.40
2017-07-05T16:47:16.028Z,23.20
2017-07-05T16:49:44.376Z,23.10
2017-07-05T16:52:12.677Z,22.90
2017-07-05T16:54:41.070Z,23.30
2017-07-05T16:57:09.404Z,23.70
2017-07-05T16:59:37.708Z,23.90
2017-07-05T17:02:07.180Z,24.20
2017-07-05T17:04:35.477Z,24.80
2017-07-05T17:07:03.775Z,24.60
2017-07-05T17:09:32.280Z,24.60
2017-07-05T17:12:00.617Z,24.80
2017-07-05T17:14:28.928Z,24.70
2017-07-05T17:16:57.278Z,24.30
2017-07-05T17:19:27.737Z,24.40
2017-07-05T17:21:56.080Z,24.60
2017-07-05T17:24:24.392Z,24.60
2017-07-05T17:26:52.750Z,24.20
2017-07-05T17:29:21.052Z,24.20
2017-07-05T17:31:49.364Z,24.10
2017-07-05T17:34:17.748Z,24.20
2017-07-05T17:36:46.099Z,24.10
2017-07-05T17:39:14.452Z,24.20
2017-07-05T17:41:42.813Z,24.40
2017-07-05T17:44:11.264Z,24.20
2017-07-05T17:46:39.619Z,24.20
2017-07-05T17:49:07.909Z,24.40
2017-07-05T17:51:36.256Z,24.50
2017-07-05T17:54:04.608Z,24.30
2017-07-05T17:56:32.961Z,24.30
2017-07-05T17:59:01.264Z,24.40
2017-07-05T18:01:29.621Z,24.30
2017-07-05T18:03:57.923Z,24.20
2017-07-05T18:06:26.283Z,24.00
2017-07-05T18:08:54.590Z,24.10
2017-07-05T18:11:22.937Z,23.90
2017-07-05T18:13:51.250Z,23.40
2017-07-05T18:16:19.691Z,23.50
2017-07-05T18:18:47.997Z,23.10
2017-07-05T18:21:16.298Z,23.00
2017-07-05T18:23:44.647Z,23.10
2017-07-05T18:26:12.995Z,23.10
2017-07-05T18:28:41.400Z,23.00
2017-07-05T18:31:09.759Z,22.90
2017-07-05T18:33:38.106Z,22.70
2017-07-05T18:36:07.392Z,22.30
2017-07-05T18:38:35.701Z,22.30
2017-07-05T18:41:04.005Z,22.20
2017-07-05T18:43:32.370Z,22.10
2017-07-05T18:46:01.666Z,21.90
2017-07-05T18:48:30.062Z,21.60
2017-07-05T18:50:58.364Z,21.20
2017-07-05T18:53:26.723Z,21.00
2017-07-05T18:55:55.065Z,20.80
2017-07-05T18:58:23.416Z,20.80
2017-07-05T19:00:51.871Z,20.60
2017-07-05T19:03:20.184Z,20.30
2017-07-05T19:05:48.532Z,20.00
2017-07-05T19:08:17.008Z,19.90
2017-07-05T19:10:45.316Z,19.70
2017-07-05T19:13:13.626Z,19.60
2017-07-05T19:15:41.976Z,19.40
2017-07-05T19:18:10.377Z,19.10
2017-07-05T19:20:39.457Z,18.60
2017-07-05T19:23:08.028Z,18.60
2017-07-05T19:25:36.384Z,18.50
2017-07-05T19:28:05.453Z,18.30
2017-07-05T19:30:33.796Z,18.30
2017-07-05T19:33:02.215Z,18.30
2017-07-05T19:35:30.516Z,18.10
2017-07-05T19:37:58.868Z,17.90
2017-07-05T19:40:27.216Z,17.80
2017-07-05T19:42:55.540Z,17.70
2017-07-05T19:45:23.898Z,17.50
2017-07-05T19:47:52.308Z,17.40
2017-07-05T19:50:20.613Z,17.30
2017-07-05T19:52:49.145Z,17.20
2017-07-05T19:55:17.477Z,17.10
2017-07-05T19:57:46.090Z,17.10
2017-07-05T20:00:14.818Z,17.00
2017-07-05T20:02:43.194Z,16.80
2017-07-05T20:05:11.676Z,16.70
2017-07-05T20:07:40.129Z,16.70
2017-07-05T20:10:08.887Z,16.50
2017-07-05T20:12:37.441Z,16.40
2017-07-05T20:15:05.856Z,16.30
2017-07-05T20:17:34.528Z,16.20
2017-07-05T20:20:04.798Z,16.10
2017-07-05T20:22:33.174Z,16.10
2017-07-05T20:25:01.484Z,16.10
2017-07-05T20:27:29.860Z,16.00
2017-07-05T20:29:58.450Z,15.90
2017-07-05T20:32:26.761Z,15.90
2017-07-05T20:34:55.068Z,15.80
2017-07-05T20:37:23.519Z,15.70
2017-07-05T20:39:52.976Z,15.70
2017-07-05T20:42:21.337Z,15.60
2017-07-05T20:44:49.709Z,15.50
2017-07-05T20:47:18.033Z,15.50
2017-07-05T20:49:46.339Z,15.50
2017-07-05T20:52:14.717Z,15.40
2017-07-05T20:54:43.023Z,15.40
2017-07-05T20:57:12.752Z,15.40
2017-07-05T20:59:41.098Z,15.30
2017-07-05T21:02:09.414Z,15.20
2017-07-05T21:04:37.769Z,15.10
2017-07-05T21:07:06.861Z,14.80
2017-07-05T21:09:35.475Z,14.80
2017-07-05T21:12:04.542Z,14.70
2017-07-05T21:14:32.841Z,14.60
2017-07-05T21:17:01.197Z,14.70
2017-07-05T21:19:29.565Z,14.60
2017-07-05T21:21:57.869Z,14.50
2017-07-05T21:24:26.225Z,14.60
2017-07-05T21:26:54.583Z,14.50
2017-07-05T21:29:22.930Z,14.50
2017-07-05T21:31:51.232Z,14.50
2017-07-05T21:34:19.543Z,14.40
2017-07-05T21:36:47.888Z,14.40
2017-07-05T21:39:17.067Z,14.30
2017-07-05T21:41:45.425Z,14.20
2017-07-05T21:44:13.777Z,14.20
2017-07-05T21:46:42.845Z,14.00
2017-07-05T21:49:11.191Z,14.00
2017-07-05T21:51:39.553Z,14.00
2017-07-05T21:54:08.629Z,14.00
2017-07-05T21:56:38.768Z,13.90
2017-07-05T21:59:08.045Z,13.80
2017-07-05T22:01:36.389Z,13.70
2017-07-05T22:04:05.467Z,13.70
2017-07-05T22:06:33.821Z,13.70
2017-07-05T22:09:02.123Z,13.70
2017-07-05T22:11:30.488Z,13.70
2017-07-05T22:13:59.559Z,13.60
2017-07-05T22:16:30.267Z,13.60
2017-07-05T22:18:58.727Z,13.50
2017-07-05T22:21:27.797Z,13.40
2017-07-05T22:23:56.096Z,13.40
2017-07-05T22:26:24.704Z,13.40
2017-07-05T22:28:53.005Z,13.40
2017-07-05T22:31:22.072Z,13.30
2017-07-05T22:33:50.429Z,13.30
2017-07-05T22:36:18.745Z,13.30
2017-07-05T22:38:47.104Z,13.20
2017-07-05T22:41:15.419Z,13.20
2017-07-05T22:43:43.756Z,13.20
2017-07-05T22:46:12.068Z,13.20
2017-07-05T22:48:40.436Z,13.10
2017-07-05T22:51:09.059Z,13.00
2017-07-05T22:53:37.416Z,13.00
2017-07-05T22:56:05.716Z,13.00
2017-07-05T22:58:34.016Z,13.00
2017-07-05T23:01:02.364Z,13.00
2017-07-05T23:03:30.743Z,13.00
2017-07-05T23:05:59.049Z,12.90
2017-07-05T23:08:27.367Z,12.80
2017-07-05T23:10:55.737Z,12.80
2017-07-05T23:13:24.045Z,12.70
2017-07-05T23:15:52.497Z,12.70
2017-07-05T23:18:20.810Z,12.80
2017-07-05T23:20:49.196Z,12.70
2017-07-05T23:23:18.610Z,12.60
2017-07-05T23:25:46.911Z,12.60
2017-07-05T23:28:18.176Z,12.60
2017-07-05T23:30:46.480Z,12.50
2017-07-05T23:33:19.075Z,12.60
2017-07-05T23:35:47.438Z,12.50
2017-07-05T23:38:15.744Z,12.40
2017-07-05T23:40:44.087Z,12.40
2017-07-05T23:43:12.452Z,12.30
2017-07-05T23:45:40.825Z,12.30
2017-07-05T23:48:09.124Z,12.30
2017-07-05T23:50:37.431Z,12.30
2017-07-05T23:53:05.777Z,12.20
2017-07-05T23:55:34.081Z,12.20
2017-07-05T23:58:04.247Z,12.20
